In Rescue
 
Open Full Screen Window  High Contrast Mode
Wind Gusting 00 knots
06
January 22, 2020 4:37 PM CST
Weather Information
Wind Direction
  170 °
Wind Speed
  06 kt (7 mph)
Wind Gust
  00 kt (0 mph)
Altimeter
29.80 in
Visibility
10 SM
Temperature
01° C
34° F
Dewpoint
-01° C
30° F
Humidity
87%
1hr Rain Fall
00.00 in.
24hr Rain Fall
00.00 in.
Sky Condition
Overcast @ 800 ft
IFR

METAR KMWM 222237Z AUTO 17006KT 10SM OVC008 01/M01 A2980 RMK AO2

FAA Disclaimer: The data displayed is for advisory purposes only and is not to be used for flight planning or operations.